sensor_id;sensor_type;location;lat;lon;timestamp;P1;durP1;ratioP1;P2;durP2;ratioP2
39788;SDS011;25478;42.626;23.320;2023-07-31T00:01:35;9.60;;;5.97;;
39788;SDS011;25478;42.626;23.320;2023-07-31T00:04:00;9.48;;;6.22;;
39788;SDS011;25478;42.626;23.320;2023-07-31T00:06:25;7.70;;;6.22;;
39788;SDS011;25478;42.626;23.320;2023-07-31T00:08:51;6.72;;;5.53;;
39788;SDS011;25478;42.626;23.320;2023-07-31T00:11:16;9.55;;;6.18;;
39788;SDS011;25478;42.626;23.320;2023-07-31T00:13:42;8.52;;;6.05;;
39788;SDS011;25478;42.626;23.320;2023-07-31T00:16:07;7.47;;;6.07;;
39788;SDS011;25478;42.626;23.320;2023-07-31T00:18:33;8.77;;;6.13;;
39788;SDS011;25478;42.626;23.320;2023-07-31T00:20:58;6.72;;;5.47;;
39788;SDS011;25478;42.626;23.320;2023-07-31T00:23:24;8.35;;;6.93;;
39788;SDS011;25478;42.626;23.320;2023-07-31T00:25:49;7.65;;;5.90;;
39788;SDS011;25478;42.626;23.320;2023-07-31T00:28:15;6.90;;;5.72;;
39788;SDS011;25478;42.626;23.320;2023-07-31T00:30:40;8.38;;;6.25;;
39788;SDS011;25478;42.626;23.320;2023-07-31T00:33:06;9.32;;;6.53;;
39788;SDS011;25478;42.626;23.320;2023-07-31T00:35:31;8.27;;;5.82;;
39788;SDS011;25478;42.626;23.320;2023-07-31T00:37:58;8.32;;;6.40;;
39788;SDS011;25478;42.626;23.320;2023-07-31T00:40:24;7.90;;;6.20;;
39788;SDS011;25478;42.626;23.320;2023-07-31T00:42:49;7.55;;;6.18;;
39788;SDS011;25478;42.626;23.320;2023-07-31T00:45:15;7.22;;;6.13;;
39788;SDS011;25478;42.626;23.320;2023-07-31T00:47:41;8.30;;;6.50;;
39788;SDS011;25478;42.626;23.320;2023-07-31T00:50:06;7.97;;;6.45;;
39788;SDS011;25478;42.626;23.320;2023-07-31T00:52:32;8.40;;;6.45;;
39788;SDS011;25478;42.626;23.320;2023-07-31T00:54:58;8.88;;;6.90;;
39788;SDS011;25478;42.626;23.320;2023-07-31T00:57:24;9.18;;;7.13;;
39788;SDS011;25478;42.626;23.320;2023-07-31T00:59:50;8.10;;;6.22;;
39788;SDS011;25478;42.626;23.320;2023-07-31T01:02:16;7.47;;;6.10;;
39788;SDS011;25478;42.626;23.320;2023-07-31T01:04:42;10.05;;;7.85;;
39788;SDS011;25478;42.626;23.320;2023-07-31T01:07:18;7.88;;;6.80;;
39788;SDS011;25478;42.626;23.320;2023-07-31T01:12:42;8.25;;;6.45;;
39788;SDS011;25478;42.626;23.320;2023-07-31T01:15:11;8.75;;;6.55;;
39788;SDS011;25478;42.626;23.320;2023-07-31T01:17:39;8.20;;;6.38;;
39788;SDS011;25478;42.626;23.320;2023-07-31T01:20:12;11.95;;;9.35;;
39788;SDS011;25478;42.626;23.320;2023-07-31T01:28:07;12.90;;;10.00;;
39788;SDS011;25478;42.626;23.320;2023-07-31T01:30:38;11.30;;;8.70;;
39788;SDS011;25478;42.626;23.320;2023-07-31T01:35:37;10.27;;;7.93;;
39788;SDS011;25478;42.626;23.320;2023-07-31T01:38:03;9.07;;;7.28;;
39788;SDS011;25478;42.626;23.320;2023-07-31T01:40:30;17.52;;;12.98;;
39788;SDS011;25478;42.626;23.320;2023-07-31T01:42:55;25.88;;;20.45;;
39788;SDS011;25478;42.626;23.320;2023-07-31T01:45:21;27.52;;;21.80;;
39788;SDS011;25478;42.626;23.320;2023-07-31T01:47:46;19.60;;;16.08;;
39788;SDS011;25478;42.626;23.320;2023-07-31T01:50:12;21.83;;;18.30;;
39788;SDS011;25478;42.626;23.320;2023-07-31T01:52:37;30.15;;;23.33;;
39788;SDS011;25478;42.626;23.320;2023-07-31T01:55:03;26.40;;;21.23;;
39788;SDS011;25478;42.626;23.320;2023-07-31T01:57:29;30.98;;;24.60;;
39788;SDS011;25478;42.626;23.320;2023-07-31T01:59:54;37.60;;;28.10;;
39788;SDS011;25478;42.626;23.320;2023-07-31T02:02:20;39.50;;;29.83;;
39788;SDS011;25478;42.626;23.320;2023-07-31T02:04:48;38.97;;;29.33;;
39788;SDS011;25478;42.626;23.320;2023-07-31T02:07:13;38.80;;;30.02;;
39788;SDS011;25478;42.626;23.320;2023-07-31T02:09:39;41.22;;;29.90;;
39788;SDS011;25478;42.626;23.320;2023-07-31T02:12:04;41.53;;;31.00;;
39788;SDS011;25478;42.626;23.320;2023-07-31T02:14:30;39.72;;;30.25;;
39788;SDS011;25478;42.626;23.320;2023-07-31T02:16:56;41.80;;;31.85;;
39788;SDS011;25478;42.626;23.320;2023-07-31T02:19:21;37.45;;;29.50;;
39788;SDS011;25478;42.626;23.320;2023-07-31T02:21:47;40.55;;;30.63;;
39788;SDS011;25478;42.626;23.320;2023-07-31T02:24:12;37.42;;;29.50;;
39788;SDS011;25478;42.626;23.320;2023-07-31T02:26:38;37.67;;;29.00;;
39788;SDS011;25478;42.626;23.320;2023-07-31T02:29:03;37.15;;;28.92;;
39788;SDS011;25478;42.626;23.320;2023-07-31T02:31:29;41.20;;;29.92;;
39788;SDS011;25478;42.626;23.320;2023-07-31T02:33:54;40.13;;;30.65;;
39788;SDS011;25478;42.626;23.320;2023-07-31T02:36:20;37.80;;;29.08;;
39788;SDS011;25478;42.626;23.320;2023-07-31T02:38:45;38.75;;;29.63;;
39788;SDS011;25478;42.626;23.320;2023-07-31T02:41:11;39.15;;;29.42;;
39788;SDS011;25478;42.626;23.320;2023-07-31T02:43:37;38.00;;;29.08;;
39788;SDS011;25478;42.626;23.320;2023-07-31T02:46:02;38.50;;;29.92;;
39788;SDS011;25478;42.626;23.320;2023-07-31T02:48:28;38.30;;;29.02;;
39788;SDS011;25478;42.626;23.320;2023-07-31T02:50:53;37.95;;;29.60;;
39788;SDS011;25478;42.626;23.320;2023-07-31T02:53:19;42.38;;;30.85;;
39788;SDS011;25478;42.626;23.320;2023-07-31T02:55:44;39.75;;;29.00;;
39788;SDS011;25478;42.626;23.320;2023-07-31T02:58:09;40.50;;;30.85;;
39788;SDS011;25478;42.626;23.320;2023-07-31T03:00:35;39.90;;;29.85;;
39788;SDS011;25478;42.626;23.320;2023-07-31T03:03:00;38.17;;;28.50;;
39788;SDS011;25478;42.626;23.320;2023-07-31T03:05:26;37.45;;;28.90;;
39788;SDS011;25478;42.626;23.320;2023-07-31T03:07:52;37.50;;;29.45;;
39788;SDS011;25478;42.626;23.320;2023-07-31T03:10:18;34.50;;;27.30;;
39788;SDS011;25478;42.626;23.320;2023-07-31T03:12:46;37.38;;;28.73;;
39788;SDS011;25478;42.626;23.320;2023-07-31T03:15:13;40.28;;;28.25;;
39788;SDS011;25478;42.626;23.320;2023-07-31T03:17:38;33.97;;;26.85;;
39788;SDS011;25478;42.626;23.320;2023-07-31T03:20:04;37.40;;;27.67;;
39788;SDS011;25478;42.626;23.320;2023-07-31T03:22:30;35.30;;;26.50;;
39788;SDS011;25478;42.626;23.320;2023-07-31T03:24:55;34.88;;;26.85;;
39788;SDS011;25478;42.626;23.320;2023-07-31T03:27:21;35.60;;;26.70;;
39788;SDS011;25478;42.626;23.320;2023-07-31T03:29:46;37.35;;;27.65;;
39788;SDS011;25478;42.626;23.320;2023-07-31T03:32:12;36.72;;;27.85;;
39788;SDS011;25478;42.626;23.320;2023-07-31T03:34:37;37.67;;;26.95;;
39788;SDS011;25478;42.626;23.320;2023-07-31T03:37:05;38.42;;;27.42;;
39788;SDS011;25478;42.626;23.320;2023-07-31T03:39:30;36.35;;;27.38;;
39788;SDS011;25478;42.626;23.320;2023-07-31T03:41:56;40.25;;;28.52;;
39788;SDS011;25478;42.626;23.320;2023-07-31T03:44:21;38.65;;;27.90;;
39788;SDS011;25478;42.626;23.320;2023-07-31T03:46:47;43.72;;;29.63;;
39788;SDS011;25478;42.626;23.320;2023-07-31T03:49:12;36.55;;;27.58;;
39788;SDS011;25478;42.626;23.320;2023-07-31T03:51:38;40.33;;;28.40;;
39788;SDS011;25478;42.626;23.320;2023-07-31T03:54:03;39.22;;;27.42;;
39788;SDS011;25478;42.626;23.320;2023-07-31T03:56:29;36.55;;;26.83;;
39788;SDS011;25478;42.626;23.320;2023-07-31T03:58:54;41.80;;;28.50;;
39788;SDS011;25478;42.626;23.320;2023-07-31T04:01:20;40.45;;;28.10;;
39788;SDS011;25478;42.626;23.320;2023-07-31T04:03:45;41.28;;;29.52;;
39788;SDS011;25478;42.626;23.320;2023-07-31T04:06:11;40.85;;;29.02;;
39788;SDS011;25478;42.626;23.320;2023-07-31T04:08:36;39.22;;;28.10;;
39788;SDS011;25478;42.626;23.320;2023-07-31T04:11:02;39.78;;;27.70;;
39788;SDS011;25478;42.626;23.320;2023-07-31T04:13:28;39.10;;;27.23;;
39788;SDS011;25478;42.626;23.320;2023-07-31T04:15:54;38.58;;;26.70;;
39788;SDS011;25478;42.626;23.320;2023-07-31T04:18:20;38.90;;;28.08;;
39788;SDS011;25478;42.626;23.320;2023-07-31T04:20:45;38.72;;;26.15;;
39788;SDS011;25478;42.626;23.320;2023-07-31T04:23:11;36.55;;;25.65;;
39788;SDS011;25478;42.626;23.320;2023-07-31T04:25:37;38.22;;;25.95;;
39788;SDS011;25478;42.626;23.320;2023-07-31T04:28:02;33.58;;;25.38;;
39788;SDS011;25478;42.626;23.320;2023-07-31T04:30:28;35.65;;;25.25;;
39788;SDS011;25478;42.626;23.320;2023-07-31T04:32:53;33.75;;;24.25;;
39788;SDS011;25478;42.626;23.320;2023-07-31T04:35:19;33.95;;;25.02;;
39788;SDS011;25478;42.626;23.320;2023-07-31T04:37:44;31.85;;;22.75;;
39788;SDS011;25478;42.626;23.320;2023-07-31T04:40:13;30.88;;;23.02;;
39788;SDS011;25478;42.626;23.320;2023-07-31T04:42:39;32.55;;;23.33;;
39788;SDS011;25478;42.626;23.320;2023-07-31T04:45:05;28.45;;;21.90;;
39788;SDS011;25478;42.626;23.320;2023-07-31T04:47:30;27.45;;;20.02;;
39788;SDS011;25478;42.626;23.320;2023-07-31T04:49:56;27.17;;;20.05;;
39788;SDS011;25478;42.626;23.320;2023-07-31T04:52:21;26.92;;;19.13;;
39788;SDS011;25478;42.626;23.320;2023-07-31T04:54:47;23.77;;;18.58;;
39788;SDS011;25478;42.626;23.320;2023-07-31T04:57:12;25.48;;;18.98;;
39788;SDS011;25478;42.626;23.320;2023-07-31T04:59:39;23.65;;;18.42;;
39788;SDS011;25478;42.626;23.320;2023-07-31T05:02:04;22.92;;;16.90;;
39788;SDS011;25478;42.626;23.320;2023-07-31T05:04:30;22.35;;;16.90;;
39788;SDS011;25478;42.626;23.320;2023-07-31T05:06:56;24.88;;;18.80;;
39788;SDS011;25478;42.626;23.320;2023-07-31T05:09:21;22.05;;;17.08;;
39788;SDS011;25478;42.626;23.320;2023-07-31T05:11:47;22.30;;;18.13;;
39788;SDS011;25478;42.626;23.320;2023-07-31T05:14:12;23.63;;;17.80;;
39788;SDS011;25478;42.626;23.320;2023-07-31T05:16:38;21.42;;;17.33;;
39788;SDS011;25478;42.626;23.320;2023-07-31T05:19:04;21.30;;;16.95;;
39788;SDS011;25478;42.626;23.320;2023-07-31T05:21:29;20.33;;;16.48;;
39788;SDS011;25478;42.626;23.320;2023-07-31T05:23:55;20.05;;;15.70;;
39788;SDS011;25478;42.626;23.320;2023-07-31T05:26:20;19.90;;;16.10;;
39788;SDS011;25478;42.626;23.320;2023-07-31T05:28:46;18.02;;;14.15;;
39788;SDS011;25478;42.626;23.320;2023-07-31T05:31:11;16.25;;;14.05;;
39788;SDS011;25478;42.626;23.320;2023-07-31T05:33:36;18.60;;;14.10;;
39788;SDS011;25478;42.626;23.320;2023-07-31T05:36:02;17.30;;;14.27;;
39788;SDS011;25478;42.626;23.320;2023-07-31T05:38:27;15.40;;;13.57;;
39788;SDS011;25478;42.626;23.320;2023-07-31T05:40:53;16.88;;;13.10;;
39788;SDS011;25478;42.626;23.320;2023-07-31T05:43:18;17.05;;;13.38;;
39788;SDS011;25478;42.626;23.320;2023-07-31T05:45:44;14.90;;;12.10;;
39788;SDS011;25478;42.626;23.320;2023-07-31T05:48:09;17.05;;;12.15;;
39788;SDS011;25478;42.626;23.320;2023-07-31T05:50:35;14.35;;;12.07;;
39788;SDS011;25478;42.626;23.320;2023-07-31T05:53:02;12.52;;;10.88;;
39788;SDS011;25478;42.626;23.320;2023-07-31T05:55:27;13.13;;;10.55;;
39788;SDS011;25478;42.626;23.320;2023-07-31T05:57:53;16.30;;;11.35;;
39788;SDS011;25478;42.626;23.320;2023-07-31T06:00:19;15.65;;;9.90;;
39788;SDS011;25478;42.626;23.320;2023-07-31T06:02:45;12.57;;;10.00;;
39788;SDS011;25478;42.626;23.320;2023-07-31T06:05:12;13.00;;;9.68;;
39788;SDS011;25478;42.626;23.320;2023-07-31T06:07:38;11.65;;;9.35;;
39788;SDS011;25478;42.626;23.320;2023-07-31T06:10:03;13.27;;;10.38;;
39788;SDS011;25478;42.626;23.320;2023-07-31T06:12:34;11.93;;;9.43;;
39788;SDS011;25478;42.626;23.320;2023-07-31T06:15:00;9.77;;;8.23;;
39788;SDS011;25478;42.626;23.320;2023-07-31T06:17:27;10.68;;;8.27;;
39788;SDS011;25478;42.626;23.320;2023-07-31T06:19:53;10.05;;;7.80;;
39788;SDS011;25478;42.626;23.320;2023-07-31T06:22:19;9.75;;;7.40;;
39788;SDS011;25478;42.626;23.320;2023-07-31T06:24:44;9.93;;;7.60;;
39788;SDS011;25478;42.626;23.320;2023-07-31T06:27:10;9.70;;;7.22;;
39788;SDS011;25478;42.626;23.320;2023-07-31T06:29:36;8.90;;;6.78;;
39788;SDS011;25478;42.626;23.320;2023-07-31T06:32:01;11.00;;;7.35;;
39788;SDS011;25478;42.626;23.320;2023-07-31T06:34:27;8.32;;;5.88;;
39788;SDS011;25478;42.626;23.320;2023-07-31T06:36:52;6.75;;;5.78;;
39788;SDS011;25478;42.626;23.320;2023-07-31T06:39:18;8.25;;;6.13;;
39788;SDS011;25478;42.626;23.320;2023-07-31T06:41:43;7.18;;;5.57;;
39788;SDS011;25478;42.626;23.320;2023-07-31T06:44:09;6.93;;;4.63;;
39788;SDS011;25478;42.626;23.320;2023-07-31T06:46:36;6.47;;;4.78;;
39788;SDS011;25478;42.626;23.320;2023-07-31T06:49:01;6.72;;;4.50;;
39788;SDS011;25478;42.626;23.320;2023-07-31T06:51:27;8.20;;;5.05;;
39788;SDS011;25478;42.626;23.320;2023-07-31T06:53:53;6.30;;;4.60;;
39788;SDS011;25478;42.626;23.320;2023-07-31T06:56:18;6.47;;;5.20;;
39788;SDS011;25478;42.626;23.320;2023-07-31T06:58:44;7.32;;;4.95;;
39788;SDS011;25478;42.626;23.320;2023-07-31T07:01:09;7.25;;;4.63;;
39788;SDS011;25478;42.626;23.320;2023-07-31T07:03:35;8.98;;;4.95;;
39788;SDS011;25478;42.626;23.320;2023-07-31T07:06:00;5.43;;;4.20;;
39788;SDS011;25478;42.626;23.320;2023-07-31T07:08:26;7.03;;;4.88;;
39788;SDS011;25478;42.626;23.320;2023-07-31T07:10:51;6.78;;;4.43;;
39788;SDS011;25478;42.626;23.320;2023-07-31T07:13:17;5.72;;;4.30;;
39788;SDS011;25478;42.626;23.320;2023-07-31T07:15:43;6.13;;;4.63;;
39788;SDS011;25478;42.626;23.320;2023-07-31T07:18:14;8.57;;;4.47;;
39788;SDS011;25478;42.626;23.320;2023-07-31T07:20:39;6.22;;;4.00;;
39788;SDS011;25478;42.626;23.320;2023-07-31T07:23:05;5.00;;;3.58;;
39788;SDS011;25478;42.626;23.320;2023-07-31T07:25:30;5.05;;;3.60;;
39788;SDS011;25478;42.626;23.320;2023-07-31T07:27:56;6.53;;;3.90;;
39788;SDS011;25478;42.626;23.320;2023-07-31T07:30:22;4.70;;;3.15;;
39788;SDS011;25478;42.626;23.320;2023-07-31T07:32:50;5.68;;;3.60;;
39788;SDS011;25478;42.626;23.320;2023-07-31T07:35:15;5.15;;;3.63;;
39788;SDS011;25478;42.626;23.320;2023-07-31T07:37:41;7.30;;;3.42;;
39788;SDS011;25478;42.626;23.320;2023-07-31T07:40:06;5.32;;;3.38;;
39788;SDS011;25478;42.626;23.320;2023-07-31T07:42:32;4.93;;;3.13;;
39788;SDS011;25478;42.626;23.320;2023-07-31T07:44:58;4.28;;;3.17;;
39788;SDS011;25478;42.626;23.320;2023-07-31T07:47:23;5.88;;;3.28;;
39788;SDS011;25478;42.626;23.320;2023-07-31T07:49:49;5.18;;;3.17;;
39788;SDS011;25478;42.626;23.320;2023-07-31T07:52:14;4.78;;;3.33;;
39788;SDS011;25478;42.626;23.320;2023-07-31T07:54:40;7.82;;;3.70;;
39788;SDS011;25478;42.626;23.320;2023-07-31T07:57:05;6.07;;;3.38;;
39788;SDS011;25478;42.626;23.320;2023-07-31T07:59:31;6.60;;;3.50;;
39788;SDS011;25478;42.626;23.320;2023-07-31T08:01:56;4.88;;;3.25;;
39788;SDS011;25478;42.626;23.320;2023-07-31T08:04:22;5.78;;;3.08;;
39788;SDS011;25478;42.626;23.320;2023-07-31T08:06:48;4.63;;;3.00;;
39788;SDS011;25478;42.626;23.320;2023-07-31T08:09:14;6.05;;;3.20;;
39788;SDS011;25478;42.626;23.320;2023-07-31T08:11:39;6.50;;;3.55;;
39788;SDS011;25478;42.626;23.320;2023-07-31T08:14:05;5.30;;;3.40;;
39788;SDS011;25478;42.626;23.320;2023-07-31T08:16:30;4.95;;;3.20;;
39788;SDS011;25478;42.626;23.320;2023-07-31T08:18:56;6.68;;;3.35;;
39788;SDS011;25478;42.626;23.320;2023-07-31T08:21:21;5.55;;;3.65;;
39788;SDS011;25478;42.626;23.320;2023-07-31T08:23:48;4.40;;;3.50;;
39788;SDS011;25478;42.626;23.320;2023-07-31T08:26:17;5.75;;;3.20;;
39788;SDS011;25478;42.626;23.320;2023-07-31T08:28:43;5.07;;;3.58;;
39788;SDS011;25478;42.626;23.320;2023-07-31T08:31:08;5.22;;;3.13;;
39788;SDS011;25478;42.626;23.320;2023-07-31T08:33:34;4.45;;;2.90;;
39788;SDS011;25478;42.626;23.320;2023-07-31T08:35:59;6.07;;;3.22;;
39788;SDS011;25478;42.626;23.320;2023-07-31T08:38:26;4.78;;;3.30;;
39788;SDS011;25478;42.626;23.320;2023-07-31T08:40:51;5.40;;;3.35;;
39788;SDS011;25478;42.626;23.320;2023-07-31T08:43:17;6.60;;;3.38;;
39788;SDS011;25478;42.626;23.320;2023-07-31T08:45:45;4.95;;;3.40;;
39788;SDS011;25478;42.626;23.320;2023-07-31T08:48:12;6.70;;;3.40;;
39788;SDS011;25478;42.626;23.320;2023-07-31T08:50:38;5.93;;;3.05;;
39788;SDS011;25478;42.626;23.320;2023-07-31T08:53:04;5.55;;;3.42;;
39788;SDS011;25478;42.626;23.320;2023-07-31T08:55:29;4.28;;;2.88;;
39788;SDS011;25478;42.626;23.320;2023-07-31T08:57:57;5.78;;;3.20;;
39788;SDS011;25478;42.626;23.320;2023-07-31T09:00:24;4.85;;;3.30;;
39788;SDS011;25478;42.626;23.320;2023-07-31T09:03:03;6.10;;;3.17;;
39788;SDS011;25478;42.626;23.320;2023-07-31T09:05:39;5.40;;;3.60;;
39788;SDS011;25478;42.626;23.320;2023-07-31T09:08:07;4.03;;;2.92;;
39788;SDS011;25478;42.626;23.320;2023-07-31T09:10:35;4.75;;;2.92;;
39788;SDS011;25478;42.626;23.320;2023-07-31T09:13:01;4.55;;;2.95;;
39788;SDS011;25478;42.626;23.320;2023-07-31T09:15:27;4.85;;;3.13;;
39788;SDS011;25478;42.626;23.320;2023-07-31T09:18:00;4.55;;;3.00;;
39788;SDS011;25478;42.626;23.320;2023-07-31T09:20:26;4.00;;;2.88;;
39788;SDS011;25478;42.626;23.320;2023-07-31T09:22:52;5.38;;;2.83;;
39788;SDS011;25478;42.626;23.320;2023-07-31T09:30:18;3.88;;;2.78;;
39788;SDS011;25478;42.626;23.320;2023-07-31T09:32:44;4.78;;;2.80;;
39788;SDS011;25478;42.626;23.320;2023-07-31T09:35:21;4.43;;;3.03;;
39788;SDS011;25478;42.626;23.320;2023-07-31T09:37:51;5.43;;;3.15;;
39788;SDS011;25478;42.626;23.320;2023-07-31T09:40:24;5.05;;;3.03;;
39788;SDS011;25478;42.626;23.320;2023-07-31T09:43:00;4.93;;;3.22;;
39788;SDS011;25478;42.626;23.320;2023-07-31T09:45:27;5.22;;;2.85;;
39788;SDS011;25478;42.626;23.320;2023-07-31T09:47:53;4.20;;;3.00;;
39788;SDS011;25478;42.626;23.320;2023-07-31T09:50:20;4.60;;;3.38;;
39788;SDS011;25478;42.626;23.320;2023-07-31T09:52:47;4.93;;;3.30;;
39788;SDS011;25478;42.626;23.320;2023-07-31T09:55:19;5.13;;;3.30;;
39788;SDS011;25478;42.626;23.320;2023-07-31T09:57:46;5.22;;;3.40;;
39788;SDS011;25478;42.626;23.320;2023-07-31T10:00:13;5.20;;;3.20;;
39788;SDS011;25478;42.626;23.320;2023-07-31T10:02:40;4.88;;;3.03;;
39788;SDS011;25478;42.626;23.320;2023-07-31T10:05:06;5.20;;;3.22;;
39788;SDS011;25478;42.626;23.320;2023-07-31T10:07:36;4.95;;;3.30;;
39788;SDS011;25478;42.626;23.320;2023-07-31T10:10:07;4.30;;;3.20;;
39788;SDS011;25478;42.626;23.320;2023-07-31T10:12:34;6.40;;;3.22;;
39788;SDS011;25478;42.626;23.320;2023-07-31T10:15:01;4.15;;;3.03;;
39788;SDS011;25478;42.626;23.320;2023-07-31T10:17:27;4.30;;;2.72;;
39788;SDS011;25478;42.626;23.320;2023-07-31T10:19:56;4.93;;;2.85;;
39788;SDS011;25478;42.626;23.320;2023-07-31T10:22:23;4.35;;;2.60;;
39788;SDS011;25478;42.626;23.320;2023-07-31T10:24:48;3.80;;;2.88;;
39788;SDS011;25478;42.626;23.320;2023-07-31T10:27:15;3.85;;;2.50;;
39788;SDS011;25478;42.626;23.320;2023-07-31T10:29:41;4.47;;;2.70;;
39788;SDS011;25478;42.626;23.320;2023-07-31T10:32:09;4.63;;;2.65;;
39788;SDS011;25478;42.626;23.320;2023-07-31T10:34:37;4.65;;;2.50;;
39788;SDS011;25478;42.626;23.320;2023-07-31T10:40:03;3.47;;;2.45;;
39788;SDS011;25478;42.626;23.320;2023-07-31T10:47:59;5.85;;;2.28;;
39788;SDS011;25478;42.626;23.320;2023-07-31T10:50:26;4.90;;;2.60;;
39788;SDS011;25478;42.626;23.320;2023-07-31T10:52:53;5.97;;;2.60;;
39788;SDS011;25478;42.626;23.320;2023-07-31T10:55:39;4.90;;;2.60;;
39788;SDS011;25478;42.626;23.320;2023-07-31T10:58:07;4.05;;;2.60;;
39788;SDS011;25478;42.626;23.320;2023-07-31T11:00:36;4.03;;;2.80;;
39788;SDS011;25478;42.626;23.320;2023-07-31T11:03:10;4.70;;;2.67;;
39788;SDS011;25478;42.626;23.320;2023-07-31T11:05:45;2.95;;;2.20;;
39788;SDS011;25478;42.626;23.320;2023-07-31T11:08:15;4.30;;;2.45;;
39788;SDS011;25478;42.626;23.320;2023-07-31T11:10:43;3.28;;;2.33;;
39788;SDS011;25478;42.626;23.320;2023-07-31T11:13:10;9.98;;;2.92;;
39788;SDS011;25478;42.626;23.320;2023-07-31T11:15:36;5.03;;;2.33;;
39788;SDS011;25478;42.626;23.320;2023-07-31T11:18:01;5.47;;;2.33;;
39788;SDS011;25478;42.626;23.320;2023-07-31T11:20:37;5.30;;;2.10;;
39788;SDS011;25478;42.626;23.320;2023-07-31T11:23:05;3.10;;;2.05;;
39788;SDS011;25478;42.626;23.320;2023-07-31T11:25:32;4.13;;;1.85;;
39788;SDS011;25478;42.626;23.320;2023-07-31T11:28:04;3.60;;;1.92;;
39788;SDS011;25478;42.626;23.320;2023-07-31T11:30:31;3.20;;;1.90;;
39788;SDS011;25478;42.626;23.320;2023-07-31T11:32:57;3.72;;;1.98;;
39788;SDS011;25478;42.626;23.320;2023-07-31T11:35:22;3.63;;;2.00;;
39788;SDS011;25478;42.626;23.320;2023-07-31T11:37:48;2.95;;;2.10;;
39788;SDS011;25478;42.626;23.320;2023-07-31T11:40:14;4.03;;;2.08;;
39788;SDS011;25478;42.626;23.320;2023-07-31T11:42:40;4.50;;;2.35;;
39788;SDS011;25478;42.626;23.320;2023-07-31T11:45:07;5.18;;;2.50;;
39788;SDS011;25478;42.626;23.320;2023-07-31T11:47:34;3.60;;;2.17;;
39788;SDS011;25478;42.626;23.320;2023-07-31T11:50:02;4.55;;;2.13;;
39788;SDS011;25478;42.626;23.320;2023-07-31T11:52:34;7.00;;;2.75;;
39788;SDS011;25478;42.626;23.320;2023-07-31T11:55:03;5.03;;;3.20;;
39788;SDS011;25478;42.626;23.320;2023-07-31T11:57:31;6.88;;;3.05;;
39788;SDS011;25478;42.626;23.320;2023-07-31T11:59:57;4.57;;;2.80;;
39788;SDS011;25478;42.626;23.320;2023-07-31T12:02:22;5.28;;;3.05;;
39788;SDS011;25478;42.626;23.320;2023-07-31T12:04:49;5.32;;;2.78;;
39788;SDS011;25478;42.626;23.320;2023-07-31T12:07:14;4.43;;;3.00;;
39788;SDS011;25478;42.626;23.320;2023-07-31T12:09:55;3.58;;;2.53;;
39788;SDS011;25478;42.626;23.320;2023-07-31T12:12:22;4.85;;;2.90;;
39788;SDS011;25478;42.626;23.320;2023-07-31T12:14:48;4.05;;;2.72;;
39788;SDS011;25478;42.626;23.320;2023-07-31T12:17:16;6.70;;;3.33;;
39788;SDS011;25478;42.626;23.320;2023-07-31T12:19:43;5.05;;;2.88;;
39788;SDS011;25478;42.626;23.320;2023-07-31T12:22:15;4.78;;;2.85;;
39788;SDS011;25478;42.626;23.320;2023-07-31T12:24:44;4.72;;;3.35;;
39788;SDS011;25478;42.626;23.320;2023-07-31T12:27:10;5.05;;;3.80;;
39788;SDS011;25478;42.626;23.320;2023-07-31T12:29:37;5.70;;;3.80;;
39788;SDS011;25478;42.626;23.320;2023-07-31T12:32:04;18.63;;;5.90;;
39788;SDS011;25478;42.626;23.320;2023-07-31T12:34:43;6.60;;;4.40;;
39788;SDS011;25478;42.626;23.320;2023-07-31T12:37:08;5.85;;;3.97;;
39788;SDS011;25478;42.626;23.320;2023-07-31T12:39:34;9.70;;;6.82;;
39788;SDS011;25478;42.626;23.320;2023-07-31T12:41:59;10.05;;;6.40;;
39788;SDS011;25478;42.626;23.320;2023-07-31T12:44:25;8.05;;;6.35;;
39788;SDS011;25478;42.626;23.320;2023-07-31T12:46:50;7.78;;;6.15;;
39788;SDS011;25478;42.626;23.320;2023-07-31T12:49:16;9.18;;;6.20;;
39788;SDS011;25478;42.626;23.320;2023-07-31T12:51:41;7.60;;;5.90;;
39788;SDS011;25478;42.626;23.320;2023-07-31T12:54:07;9.43;;;6.28;;
39788;SDS011;25478;42.626;23.320;2023-07-31T12:56:32;10.27;;;6.65;;
39788;SDS011;25478;42.626;23.320;2023-07-31T12:58:58;8.27;;;5.68;;
39788;SDS011;25478;42.626;23.320;2023-07-31T13:01:23;6.28;;;5.20;;
39788;SDS011;25478;42.626;23.320;2023-07-31T13:03:49;7.35;;;5.45;;
39788;SDS011;25478;42.626;23.320;2023-07-31T13:06:14;6.97;;;5.90;;
39788;SDS011;25478;42.626;23.320;2023-07-31T13:08:40;11.45;;;7.30;;
39788;SDS011;25478;42.626;23.320;2023-07-31T13:11:05;8.27;;;6.95;;
39788;SDS011;25478;42.626;23.320;2023-07-31T13:13:31;11.10;;;7.90;;
39788;SDS011;25478;42.626;23.320;2023-07-31T13:15:56;10.45;;;7.38;;
39788;SDS011;25478;42.626;23.320;2023-07-31T13:18:22;7.40;;;6.53;;
39788;SDS011;25478;42.626;23.320;2023-07-31T13:20:47;7.88;;;6.40;;
39788;SDS011;25478;42.626;23.320;2023-07-31T13:23:13;7.82;;;6.75;;
39788;SDS011;25478;42.626;23.320;2023-07-31T13:25:38;10.35;;;7.40;;
39788;SDS011;25478;42.626;23.320;2023-07-31T13:28:04;11.60;;;7.00;;
39788;SDS011;25478;42.626;23.320;2023-07-31T13:30:29;8.30;;;6.95;;
39788;SDS011;25478;42.626;23.320;2023-07-31T13:32:55;8.13;;;6.78;;
39788;SDS011;25478;42.626;23.320;2023-07-31T13:35:20;10.15;;;6.13;;
39788;SDS011;25478;42.626;23.320;2023-07-31T13:37:46;9.23;;;6.80;;
39788;SDS011;25478;42.626;23.320;2023-07-31T13:40:11;8.35;;;6.03;;
39788;SDS011;25478;42.626;23.320;2023-07-31T13:42:37;6.90;;;5.93;;
39788;SDS011;25478;42.626;23.320;2023-07-31T13:45:02;8.25;;;5.32;;
39788;SDS011;25478;42.626;23.320;2023-07-31T13:47:28;6.18;;;5.55;;
39788;SDS011;25478;42.626;23.320;2023-07-31T13:49:54;6.90;;;5.30;;
39788;SDS011;25478;42.626;23.320;2023-07-31T13:52:19;6.53;;;5.30;;
39788;SDS011;25478;42.626;23.320;2023-07-31T13:54:44;8.07;;;5.32;;
39788;SDS011;25478;42.626;23.320;2023-07-31T13:57:10;5.63;;;4.80;;
39788;SDS011;25478;42.626;23.320;2023-07-31T13:59:36;6.47;;;4.43;;
39788;SDS011;25478;42.626;23.320;2023-07-31T14:02:02;7.43;;;4.82;;
39788;SDS011;25478;42.626;23.320;2023-07-31T14:04:27;6.45;;;4.72;;
39788;SDS011;25478;42.626;23.320;2023-07-31T14:06:53;5.95;;;4.95;;
39788;SDS011;25478;42.626;23.320;2023-07-31T14:09:18;5.78;;;5.07;;
39788;SDS011;25478;42.626;23.320;2023-07-31T14:11:44;9.15;;;5.32;;
39788;SDS011;25478;42.626;23.320;2023-07-31T14:14:09;8.00;;;4.80;;
39788;SDS011;25478;42.626;23.320;2023-07-31T14:16:35;6.38;;;4.85;;
39788;SDS011;25478;42.626;23.320;2023-07-31T14:19:01;8.32;;;4.97;;
39788;SDS011;25478;42.626;23.320;2023-07-31T14:21:26;7.03;;;5.25;;
39788;SDS011;25478;42.626;23.320;2023-07-31T14:23:52;7.40;;;5.60;;
39788;SDS011;25478;42.626;23.320;2023-07-31T14:26:18;7.65;;;5.50;;
39788;SDS011;25478;42.626;23.320;2023-07-31T14:28:43;7.32;;;5.10;;
39788;SDS011;25478;42.626;23.320;2023-07-31T14:31:09;7.43;;;5.00;;
39788;SDS011;25478;42.626;23.320;2023-07-31T14:33:34;6.88;;;4.90;;
39788;SDS011;25478;42.626;23.320;2023-07-31T14:36:00;6.78;;;4.95;;
39788;SDS011;25478;42.626;23.320;2023-07-31T14:38:26;6.20;;;4.50;;
39788;SDS011;25478;42.626;23.320;2023-07-31T14:40:51;5.68;;;4.30;;
39788;SDS011;25478;42.626;23.320;2023-07-31T14:43:17;6.40;;;5.20;;
39788;SDS011;25478;42.626;23.320;2023-07-31T14:45:42;6.45;;;4.30;;